createdAt,value
2023-03-02T00:00:16.626Z,25.25
2023-03-02T00:03:18.399Z,25.75
2023-03-02T00:06:20.256Z,26.73
2023-03-02T00:09:21.939Z,27.35
2023-03-02T00:12:24.283Z,28.13
2023-03-02T00:15:26.792Z,30.80
2023-03-02T00:18:28.371Z,27.42
2023-03-02T00:21:30.210Z,28.93
2023-03-02T00:24:32.082Z,24.98
2023-03-02T00:27:33.748Z,25.48
2023-03-02T00:30:38.257Z,24.77
2023-03-02T00:33:41.023Z,26.55
2023-03-02T00:36:43.465Z,26.60
2023-03-02T00:39:45.462Z,26.67
2023-03-02T00:42:47.059Z,25.53
2023-03-02T00:45:48.780Z,28.38
2023-03-02T00:48:51.811Z,25.80
2023-03-02T00:51:53.439Z,29.20
2023-03-02T00:54:55.107Z,27.35
2023-03-02T00:57:57.128Z,28.90
2023-03-02T01:01:11.305Z,25.95
2023-03-02T01:04:18.647Z,27.92
2023-03-02T01:07:22.640Z,26.23
2023-03-02T01:10:24.389Z,29.73
2023-03-02T01:13:26.080Z,26.00
2023-03-02T01:16:27.944Z,24.98
2023-03-02T01:19:30.946Z,25.70
2023-03-02T01:22:32.656Z,24.67
2023-03-02T01:25:36.579Z,21.77
2023-03-02T01:28:40.349Z,23.77
2023-03-02T01:31:42.530Z,24.80
2023-03-02T01:34:44.419Z,28.80
2023-03-02T01:37:46.085Z,27.98
2023-03-02T01:40:47.884Z,22.55
2023-03-02T01:43:49.519Z,25.57
2023-03-02T01:46:51.299Z,23.27
2023-03-02T01:50:01.636Z,27.33
2023-03-02T01:53:11.670Z,28.23
2023-03-02T01:56:19.814Z,25.42
2023-03-02T01:59:23.820Z,27.20
2023-03-02T02:02:26.522Z,23.42
2023-03-02T02:05:28.252Z,26.73
2023-03-02T02:08:30.528Z,27.33
2023-03-02T02:11:32.203Z,26.15
2023-03-02T02:14:33.962Z,26.03
2023-03-02T02:17:35.806Z,25.20
2023-03-02T02:20:41.057Z,25.35
2023-03-02T02:24:01.904Z,25.47
2023-03-02T02:27:03.839Z,23.55
2023-03-02T02:30:07.966Z,25.55
2023-03-02T02:33:16.882Z,27.63
2023-03-02T02:36:25.614Z,27.27
2023-03-02T02:39:34.226Z,24.55
2023-03-02T02:42:43.442Z,24.85
2023-03-02T02:45:48.471Z,25.27
2023-03-02T02:48:50.324Z,23.35
2023-03-02T02:51:52.730Z,24.45
2023-03-02T02:54:57.886Z,24.60
2023-03-02T02:58:02.837Z,27.40
2023-03-02T03:01:07.094Z,25.67
2023-03-02T03:04:14.178Z,22.05
2023-03-02T03:07:25.552Z,27.33
2023-03-02T03:10:37.431Z,26.38
2023-03-02T03:13:41.077Z,23.67
2023-03-02T03:16:45.343Z,27.67
2023-03-02T03:19:47.702Z,28.00
2023-03-02T03:22:53.454Z,22.38
2023-03-02T03:25:55.857Z,23.17
2023-03-02T03:28:57.552Z,26.20
2023-03-02T03:32:01.345Z,24.38
2023-03-02T03:35:08.523Z,24.63
2023-03-02T03:38:12.128Z,24.10
2023-03-02T03:41:13.890Z,28.42
2023-03-02T03:44:15.716Z,25.13
2023-03-02T03:47:19.129Z,25.27
2023-03-02T03:50:21.519Z,25.27
2023-03-02T03:53:23.453Z,23.10
2023-03-02T03:56:30.740Z,25.90
2023-03-02T03:59:34.107Z,23.48
2023-03-02T04:02:38.498Z,24.60
2023-03-02T04:05:40.583Z,23.23
2023-03-02T04:08:43.661Z,23.10
2023-03-02T04:11:47.882Z,26.60
2023-03-02T04:14:50.007Z,24.38
2023-03-02T04:17:51.792Z,25.37
2023-03-02T04:20:55.170Z,24.02
2023-03-02T04:23:56.874Z,22.95
2023-03-02T04:26:58.896Z,23.27
2023-03-02T04:30:01.427Z,25.40
2023-03-02T04:33:04.949Z,22.25
2023-03-02T04:36:10.160Z,21.80
2023-03-02T04:39:14.793Z,26.88
2023-03-02T04:42:20.946Z,26.23
2023-03-02T04:45:22.596Z,27.05
2023-03-02T04:48:24.676Z,29.23
2023-03-02T04:51:30.312Z,25.38
2023-03-02T04:54:32.205Z,23.60
2023-03-02T04:57:33.853Z,22.20
2023-03-02T05:00:36.100Z,25.27
2023-03-02T05:03:37.888Z,26.77
2023-03-02T05:06:41.015Z,28.13
2023-03-02T05:09:42.680Z,27.58
2023-03-02T05:13:02.601Z,26.45
2023-03-02T05:16:04.640Z,26.33
2023-03-02T05:19:09.306Z,23.90
2023-03-02T05:22:11.528Z,24.90
2023-03-02T05:25:14.534Z,26.75
2023-03-02T05:28:18.991Z,28.60
2023-03-02T05:31:41.231Z,24.02
2023-03-02T05:34:43.404Z,24.30
2023-03-02T05:37:45.586Z,22.17
2023-03-02T05:40:48.565Z,24.05
2023-03-02T05:43:50.701Z,24.52
2023-03-02T05:46:52.827Z,25.02
2023-03-02T05:49:54.639Z,23.30
2023-03-02T05:52:56.487Z,23.33
2023-03-02T05:55:58.239Z,25.00
2023-03-02T05:59:00.266Z,23.83
2023-03-02T06:02:03.191Z,24.30
2023-03-02T06:05:09.310Z,22.60
2023-03-02T06:08:12.138Z,23.88
2023-03-02T06:11:16.116Z,24.23
2023-03-02T06:14:19.230Z,27.50
2023-03-02T06:17:20.934Z,24.08
2023-03-02T06:20:22.797Z,25.50
2023-03-02T06:23:25.142Z,25.40
2023-03-02T06:26:26.754Z,28.13
2023-03-02T06:29:28.322Z,25.00
2023-03-02T06:32:34.226Z,28.65
2023-03-02T06:35:36.063Z,29.08
2023-03-02T06:38:40.561Z,31.50
2023-03-02T06:41:44.923Z,25.85
2023-03-02T06:44:48.568Z,26.98
2023-03-02T06:47:50.167Z,30.13
2023-03-02T06:50:51.776Z,26.37
2023-03-02T06:53:53.675Z,30.40
2023-03-02T06:56:57.798Z,28.27
2023-03-02T07:00:01.405Z,27.67
2023-03-02T07:03:03.912Z,28.52
2023-03-02T07:06:06.272Z,27.42
2023-03-02T07:09:08.628Z,27.95
2023-03-02T07:12:11.568Z,27.77
2023-03-02T07:15:16.243Z,29.17
2023-03-02T07:18:18.989Z,32.70
2023-03-02T07:21:23.368Z,24.83
2023-03-02T07:24:25.623Z,26.80
2023-03-02T07:27:27.706Z,28.20
2023-03-02T07:30:29.828Z,30.40
2023-03-02T07:33:32.162Z,30.45
2023-03-02T07:36:34.248Z,29.73
2023-03-02T07:39:35.866Z,25.75
2023-03-02T07:42:38.701Z,27.13
2023-03-02T07:45:43.933Z,27.67
2023-03-02T07:48:45.556Z,26.02
2023-03-02T07:51:49.161Z,26.87
2023-03-02T07:54:50.970Z,28.77
2023-03-02T07:57:53.183Z,26.33
2023-03-02T08:00:54.787Z,26.37
2023-03-02T08:03:56.882Z,27.58
2023-03-02T08:06:59.035Z,25.65
2023-03-02T08:10:01.372Z,28.92
2023-03-02T08:13:03.743Z,25.17
2023-03-02T08:16:08.740Z,25.45
2023-03-02T08:19:10.795Z,28.17
2023-03-02T08:22:13.070Z,29.13
2023-03-02T08:25:17.246Z,27.38
2023-03-02T08:28:20.141Z,28.27
2023-03-02T08:31:22.330Z,26.53
2023-03-02T08:34:26.343Z,26.75
2023-03-02T08:37:28.644Z,25.30
2023-03-02T08:40:30.245Z,26.45
2023-03-02T08:43:32.386Z,25.80
2023-03-02T08:46:34.592Z,28.83
2023-03-02T08:49:37.943Z,25.58
2023-03-02T08:52:40.213Z,25.57
2023-03-02T08:55:41.831Z,26.50
2023-03-02T08:58:46.388Z,25.67
2023-03-02T09:01:48.213Z,28.23
2023-03-02T09:04:50.394Z,24.45
2023-03-02T09:07:52.466Z,26.08
2023-03-02T09:10:54.520Z,23.35
2023-03-02T09:13:56.331Z,25.70
2023-03-02T09:16:59.045Z,30.45
2023-03-02T09:20:01.250Z,25.63
2023-03-02T09:23:02.842Z,27.10
2023-03-02T09:26:06.132Z,27.05
2023-03-02T09:29:08.416Z,25.88
2023-03-02T09:32:11.791Z,27.13
2023-03-02T09:35:15.588Z,24.02
2023-03-02T09:38:18.714Z,27.17
2023-03-02T09:42:07.891Z,27.05
2023-03-02T09:45:22.238Z,26.02
2023-03-02T09:48:44.290Z,27.70
2023-03-02T09:51:48.663Z,24.92
2023-03-02T09:54:50.838Z,27.07
2023-03-02T09:57:54.909Z,22.15
2023-03-02T10:00:59.198Z,26.15
2023-03-02T10:04:13.559Z,25.90
2023-03-02T10:07:35.673Z,24.55
2023-03-02T10:10:54.755Z,26.48
2023-03-02T10:14:33.793Z,26.52
2023-03-02T10:18:01.454Z,22.70
2023-03-02T10:21:05.725Z,23.13
2023-03-02T10:24:41.308Z,28.33
2023-03-02T10:27:52.372Z,22.03
2023-03-02T10:31:08.263Z,22.08
2023-03-02T10:34:14.919Z,24.67
2023-03-02T10:37:28.481Z,22.27
2023-03-02T10:40:49.769Z,22.15
2023-03-02T10:43:57.559Z,21.30
2023-03-02T10:46:59.592Z,21.85
2023-03-02T10:50:01.247Z,20.45
2023-03-02T10:53:06.738Z,22.95
2023-03-02T10:56:22.380Z,20.45
2023-03-02T10:59:45.852Z,22.67
2023-03-02T11:03:02.591Z,23.00
2023-03-02T11:06:21.455Z,20.10
2023-03-02T11:09:23.497Z,22.87
2023-03-02T11:12:26.119Z,21.65
2023-03-02T11:15:46.030Z,21.20
2023-03-02T11:19:10.369Z,22.40
2023-03-02T11:22:44.065Z,20.67
2023-03-02T11:25:57.336Z,21.88
2023-03-02T11:29:04.608Z,23.60
2023-03-02T11:32:20.296Z,19.17
2023-03-02T11:35:45.357Z,21.48
2023-03-02T11:38:51.314Z,21.48
2023-03-02T11:41:54.650Z,20.97
2023-03-02T11:45:18.870Z,22.20
2023-03-02T11:48:33.443Z,20.17
2023-03-02T11:51:50.020Z,21.85
2023-03-02T11:55:15.423Z,23.00
2023-03-02T11:58:21.181Z,19.60
2023-03-02T12:01:26.843Z,21.67
2023-03-02T12:04:32.577Z,18.47
2023-03-02T12:07:34.343Z,19.30
2023-03-02T12:10:42.601Z,22.15
2023-03-02T12:14:04.091Z,18.90
2023-03-02T12:17:26.363Z,19.05
2023-03-02T12:20:30.878Z,17.10
2023-03-02T12:24:04.007Z,19.23
2023-03-02T12:27:21.399Z,19.05
2023-03-02T12:30:28.681Z,20.23
2023-03-02T12:33:30.444Z,21.67
2023-03-02T12:36:41.441Z,22.90
2023-03-02T12:40:03.105Z,19.67
2023-03-02T12:43:20.660Z,19.48
2023-03-02T12:46:34.049Z,19.60
2023-03-02T12:49:58.628Z,22.10
2023-03-02T12:53:02.816Z,18.88
2023-03-02T12:56:04.825Z,18.88
2023-03-02T12:59:06.775Z,20.63
2023-03-02T13:02:21.739Z,22.83
2023-03-02T13:05:35.464Z,20.55
2023-03-02T13:08:37.694Z,18.80
2023-03-02T13:11:39.975Z,21.27
2023-03-02T13:14:46.177Z,20.40
2023-03-02T13:18:00.533Z,18.47
2023-03-02T13:21:04.805Z,18.05
2023-03-02T13:24:33.715Z,19.88
2023-03-02T13:27:35.460Z,20.92
2023-03-02T13:30:43.566Z,19.25
2023-03-02T13:33:47.430Z,22.00
2023-03-02T13:36:52.164Z,17.90
2023-03-02T13:39:59.764Z,24.10
2023-03-02T13:43:01.483Z,27.55
2023-03-02T13:46:16.055Z,31.08
2023-03-02T13:49:35.760Z,32.00
2023-03-02T13:52:37.450Z,31.98
2023-03-02T13:55:40.124Z,30.48
2023-03-02T13:58:41.847Z,29.77
2023-03-02T14:01:47.690Z,29.90
2023-03-02T14:04:49.474Z,29.55
2023-03-02T14:07:51.686Z,30.38
2023-03-02T14:10:59.637Z,31.07
2023-03-02T14:14:03.242Z,33.42
2023-03-02T14:17:16.564Z,31.25
2023-03-02T14:20:22.924Z,30.07
2023-03-02T14:23:26.316Z,34.92
2023-03-02T14:26:38.003Z,32.35
2023-03-02T14:29:39.665Z,34.80
2023-03-02T14:32:41.316Z,32.25
2023-03-02T14:35:44.097Z,31.48
2023-03-02T14:38:48.042Z,31.15
2023-03-02T14:41:54.486Z,29.53
2023-03-02T14:44:56.500Z,32.92
2023-03-02T14:47:58.089Z,33.65
2023-03-02T14:51:01.243Z,28.43
2023-03-02T14:54:07.444Z,33.35
2023-03-02T14:57:28.040Z,33.63
2023-03-02T15:00:31.608Z,30.95
2023-03-02T15:03:33.330Z,33.03
2023-03-02T15:06:38.661Z,37.85
2023-03-02T15:09:40.316Z,31.80
2023-03-02T15:12:41.994Z,31.70
2023-03-02T15:15:44.715Z,34.58
2023-03-02T15:18:49.903Z,31.35
2023-03-02T15:21:52.958Z,34.20
2023-03-02T15:24:55.575Z,34.08
2023-03-02T15:27:57.950Z,33.00
2023-03-02T15:31:10.083Z,30.90
2023-03-02T15:34:12.610Z,32.53
2023-03-02T15:37:14.852Z,33.47
2023-03-02T15:40:19.031Z,33.15
2023-03-02T15:43:20.996Z,35.87
2023-03-02T15:46:23.902Z,33.78
2023-03-02T15:49:28.564Z,36.53
2023-03-02T15:52:31.440Z,35.43
2023-03-02T15:55:33.169Z,40.83
2023-03-02T15:58:35.841Z,37.90
2023-03-02T16:01:37.496Z,37.17
2023-03-02T16:04:39.256Z,34.53
2023-03-02T16:07:41.128Z,38.50
2023-03-02T16:10:42.996Z,34.83
2023-03-02T16:13:44.612Z,34.73
2023-03-02T16:16:46.410Z,35.70
2023-03-02T16:19:48.547Z,37.15
2023-03-02T16:22:51.792Z,38.10
2023-03-02T16:25:56.231Z,35.25
2023-03-02T16:29:00.348Z,38.60
2023-03-02T16:32:02.224Z,37.42
2023-03-02T16:35:04.284Z,36.95
2023-03-02T16:38:06.444Z,37.97
2023-03-02T16:41:16.793Z,41.03
2023-03-02T16:44:19.316Z,39.67
2023-03-02T16:47:22.489Z,41.60
2023-03-02T16:50:25.056Z,39.17
2023-03-02T16:53:28.136Z,36.73
2023-03-02T16:56:30.251Z,40.17
2023-03-02T16:59:33.092Z,40.28
2023-03-02T17:02:35.160Z,45.97
2023-03-02T17:05:37.805Z,60.15
2023-03-02T17:08:39.605Z,50.92
2023-03-02T17:11:41.229Z,41.55
2023-03-02T17:14:42.836Z,43.10
2023-03-02T17:17:44.434Z,45.42
2023-03-02T17:20:46.457Z,41.08
2023-03-02T17:23:50.893Z,42.80
2023-03-02T17:26:56.564Z,46.70
2023-03-02T17:29:59.337Z,43.17
2023-03-02T17:33:01.644Z,41.67
2023-03-02T17:36:07.409Z,39.22
2023-03-02T17:39:09.344Z,47.70
2023-03-02T17:42:11.077Z,42.80
2023-03-02T17:45:27.273Z,39.67
2023-03-02T17:48:28.850Z,44.03
2023-03-02T17:51:30.608Z,41.88
2023-03-02T17:54:32.759Z,41.27
2023-03-02T17:57:34.519Z,42.72
2023-03-02T18:00:36.317Z,43.63
2023-03-02T18:03:38.913Z,42.53
2023-03-02T18:06:40.846Z,44.40
2023-03-02T18:09:42.847Z,44.13
2023-03-02T18:12:44.397Z,44.03
2023-03-02T18:15:46.055Z,48.57
2023-03-02T18:18:48.484Z,44.45
2023-03-02T18:21:50.094Z,41.60
2023-03-02T18:24:53.033Z,46.17
2023-03-02T18:27:55.214Z,47.63
2023-03-02T18:30:58.537Z,49.97
2023-03-02T18:34:02.514Z,45.42
2023-03-02T18:37:05.403Z,43.78
2023-03-02T18:40:07.952Z,46.88
2023-03-02T18:43:09.636Z,53.38
2023-03-02T18:46:20.878Z,52.07
2023-03-02T18:49:24.084Z,45.78
2023-03-02T18:52:26.500Z,47.03
2023-03-02T18:55:28.191Z,53.50
2023-03-02T18:58:34.053Z,49.45
2023-03-02T19:01:35.743Z,50.47
2023-03-02T19:04:37.672Z,51.00
2023-03-02T19:07:39.506Z,42.50
2023-03-02T19:10:42.357Z,49.25
2023-03-02T19:13:44.064Z,43.92
2023-03-02T19:16:46.328Z,52.33
2023-03-02T19:19:47.986Z,46.08
2023-03-02T19:22:49.791Z,44.28
2023-03-02T19:25:53.900Z,52.37
2023-03-02T19:28:55.630Z,52.10
2023-03-02T19:31:58.321Z,50.97
2023-03-02T19:35:04.169Z,46.42
2023-03-02T19:38:07.280Z,54.08
2023-03-02T19:41:12.631Z,50.38
2023-03-02T19:44:14.329Z,60.78
2023-03-02T19:47:16.066Z,53.40
2023-03-02T19:50:18.906Z,47.38
2023-03-02T19:53:22.792Z,51.65
2023-03-02T19:56:33.100Z,52.27
2023-03-02T19:59:36.592Z,53.97
2023-03-02T20:02:40.749Z,52.50
2023-03-02T20:05:42.435Z,54.72
2023-03-02T20:08:44.480Z,52.65
2023-03-02T20:11:47.574Z,50.97
2023-03-02T20:14:53.714Z,46.42
2023-03-02T20:17:58.471Z,53.13
2023-03-02T20:21:02.156Z,52.35
2023-03-02T20:24:05.036Z,51.35
2023-03-02T20:27:07.330Z,53.90
2023-03-02T20:30:13.764Z,54.45
2023-03-02T20:33:16.273Z,62.00
2023-03-02T20:36:30.527Z,53.70
2023-03-02T20:39:35.637Z,55.83
2023-03-02T20:42:37.552Z,56.25
2023-03-02T20:45:39.893Z,58.47
2023-03-02T20:48:41.540Z,53.40
2023-03-02T20:51:49.422Z,59.28
2023-03-02T20:54:53.807Z,63.60
2023-03-02T20:58:10.671Z,54.23
2023-03-02T21:01:17.424Z,55.83
2023-03-02T21:04:20.791Z,59.13
2023-03-02T21:07:24.217Z,59.25
2023-03-02T21:10:32.823Z,51.65
2023-03-02T21:13:34.471Z,55.63
2023-03-02T21:16:38.905Z,53.38
2023-03-02T21:19:40.521Z,50.30
2023-03-02T21:22:42.437Z,53.45
2023-03-02T21:25:44.835Z,56.70
2023-03-02T21:28:46.556Z,62.53
2023-03-02T21:31:48.505Z,72.60
2023-03-02T21:34:52.609Z,73.60
2023-03-02T21:37:58.388Z,67.57
2023-03-02T21:41:01.161Z,61.47
2023-03-02T21:44:05.513Z,55.13
2023-03-02T21:47:07.245Z,56.03
2023-03-02T21:50:13.114Z,60.40
2023-03-02T21:53:14.761Z,56.95
2023-03-02T21:56:20.748Z,53.83
2023-03-02T21:59:26.084Z,51.70
2023-03-02T22:02:28.234Z,50.55
2023-03-02T22:05:32.139Z,51.70
2023-03-02T22:08:35.431Z,50.60
2023-03-02T22:11:38.411Z,49.13
2023-03-02T22:14:40.064Z,49.80
2023-03-02T22:17:42.380Z,46.85
2023-03-02T22:20:47.188Z,51.90
2023-03-02T22:23:48.986Z,50.10
2023-03-02T22:26:57.189Z,52.13
2023-03-02T22:30:02.782Z,56.27
2023-03-02T22:33:15.048Z,53.47
2023-03-02T22:36:23.937Z,60.28
2023-03-02T22:39:30.773Z,54.97
2023-03-02T22:42:34.051Z,50.72
2023-03-02T22:45:38.283Z,55.92
2023-03-02T22:48:41.790Z,52.65
2023-03-02T22:51:44.568Z,54.80
2023-03-02T22:54:46.466Z,56.28
2023-03-02T22:57:48.094Z,47.60
2023-03-02T23:00:49.793Z,50.27
2023-03-02T23:03:54.391Z,47.42
2023-03-02T23:07:01.135Z,52.55
2023-03-02T23:10:03.548Z,54.50
2023-03-02T23:13:05.173Z,58.80
2023-03-02T23:16:18.193Z,52.95
2023-03-02T23:19:20.444Z,57.47
2023-03-02T23:22:23.159Z,47.80
2023-03-02T23:25:26.068Z,50.70
2023-03-02T23:28:27.654Z,50.10
2023-03-02T23:31:31.317Z,54.37
2023-03-02T23:34:32.978Z,57.35
2023-03-02T23:37:34.634Z,53.97
2023-03-02T23:40:36.230Z,51.53
2023-03-02T23:43:38.143Z,55.45
2023-03-02T23:46:39.914Z,50.88
2023-03-02T23:49:41.484Z,50.33
2023-03-02T23:52:43.271Z,47.20
2023-03-02T23:55:48.974Z,57.78
2023-03-02T23:58:50.676Z,57.28
